createdAt,value
2018-11-07T00:01:46.659Z,77.99
2018-11-07T00:04:14.561Z,78.18
2018-11-07T00:06:43.491Z,79.10
2018-11-07T00:09:10.807Z,79.51
2018-11-07T00:11:38.143Z,80.06
2018-11-07T00:14:05.880Z,79.78
2018-11-07T00:16:33.649Z,79.38
2018-11-07T00:19:01.674Z,79.03
2018-11-07T00:21:29.306Z,79.83
2018-11-07T00:23:58.050Z,79.54
2018-11-07T00:26:25.429Z,78.82
2018-11-07T00:28:52.598Z,78.76
2018-11-07T00:31:19.825Z,78.54
2018-11-07T00:33:47.026Z,78.43
2018-11-07T00:36:14.288Z,78.76
2018-11-07T00:38:41.520Z,78.44
2018-11-07T00:41:08.678Z,79.29
2018-11-07T00:43:35.915Z,79.20
2018-11-07T00:46:03.179Z,78.92
2018-11-07T00:48:30.514Z,79.10
2018-11-07T00:50:57.766Z,79.32
2018-11-07T00:53:25.040Z,78.61
2018-11-07T00:55:52.241Z,79.00
2018-11-07T00:58:19.383Z,79.21
2018-11-07T01:00:46.604Z,79.07
2018-11-07T01:03:13.894Z,78.87
2018-11-07T01:05:41.107Z,79.51
2018-11-07T01:08:08.601Z,79.30
2018-11-07T01:10:35.817Z,78.89
2018-11-07T01:13:03.014Z,79.70
2018-11-07T01:15:30.185Z,79.95
2018-11-07T01:17:57.341Z,79.39
2018-11-07T01:20:24.562Z,79.27
2018-11-07T01:22:51.812Z,79.61
2018-11-07T01:25:19.009Z,78.88
2018-11-07T01:27:46.363Z,78.77
2018-11-07T01:30:14.061Z,79.52
2018-11-07T01:32:41.441Z,79.74
2018-11-07T01:35:08.893Z,80.56
2018-11-07T01:37:36.338Z,80.21
2018-11-07T01:40:05.476Z,79.60
2018-11-07T01:42:33.457Z,79.76
2018-11-07T01:45:00.670Z,79.43
2018-11-07T01:47:27.974Z,79.44
2018-11-07T01:49:55.158Z,79.11
2018-11-07T01:52:22.417Z,80.09
2018-11-07T01:54:49.696Z,78.91
2018-11-07T01:57:16.922Z,79.67
2018-11-07T01:59:44.064Z,79.59
2018-11-07T02:02:11.378Z,79.58
2018-11-07T02:04:38.590Z,79.71
2018-11-07T02:07:06.020Z,79.57
2018-11-07T02:09:33.437Z,79.16
2018-11-07T02:12:00.642Z,79.87
2018-11-07T02:14:27.815Z,79.70
2018-11-07T02:16:54.978Z,79.62
2018-11-07T02:19:22.268Z,79.39
2018-11-07T02:21:49.575Z,79.19
2018-11-07T02:24:16.754Z,79.49
2018-11-07T02:26:43.900Z,79.71
2018-11-07T02:29:14.810Z,79.49
2018-11-07T02:31:43.991Z,79.66
2018-11-07T02:34:11.801Z,79.42
2018-11-07T02:36:38.961Z,79.93
2018-11-07T02:39:08.631Z,79.81
2018-11-07T02:41:35.955Z,79.35
2018-11-07T02:49:03.796Z,79.14
2018-11-07T02:51:30.999Z,79.40
2018-11-07T02:53:58.887Z,79.22
2018-11-07T02:56:26.288Z,79.21
2018-11-07T02:58:53.957Z,79.15
2018-11-07T03:01:21.305Z,79.88
2018-11-07T03:03:49.179Z,79.71
2018-11-07T03:06:16.373Z,79.85
2018-11-07T03:08:43.616Z,80.12
2018-11-07T03:11:10.998Z,80.33
2018-11-07T03:13:38.204Z,79.94
2018-11-07T03:16:05.672Z,79.42
2018-11-07T03:18:32.965Z,79.39
2018-11-07T03:21:00.206Z,79.23
2018-11-07T03:23:27.470Z,79.02
2018-11-07T03:25:55.070Z,79.58
2018-11-07T03:28:22.236Z,79.78
2018-11-07T03:30:49.428Z,79.97
2018-11-07T03:33:16.730Z,80.02
2018-11-07T03:35:44.050Z,79.42
2018-11-07T03:38:11.359Z,78.89
2018-11-07T03:40:38.558Z,78.64
2018-11-07T03:43:05.754Z,78.57
2018-11-07T03:45:38.615Z,78.43
2018-11-07T03:48:05.891Z,78.19
2018-11-07T03:50:33.082Z,78.15
2018-11-07T03:53:00.595Z,78.30
2018-11-07T03:55:27.782Z,78.81
2018-11-07T03:57:54.971Z,78.74
2018-11-07T04:00:22.291Z,78.33
2018-11-07T04:02:49.557Z,78.18
2018-11-07T04:05:16.756Z,77.85
2018-11-07T04:07:43.981Z,77.28
2018-11-07T04:10:11.225Z,77.75
2018-11-07T04:12:38.609Z,77.62
2018-11-07T04:15:06.252Z,77.15
2018-11-07T04:17:33.618Z,77.52
2018-11-07T04:20:00.877Z,78.02
2018-11-07T04:22:28.381Z,77.84
2018-11-07T04:24:55.589Z,77.90
2018-11-07T04:27:22.882Z,77.71
2018-11-07T04:29:50.226Z,77.70
2018-11-07T04:32:17.495Z,77.45
2018-11-07T04:34:44.787Z,77.83
2018-11-07T04:37:12.104Z,77.57
2018-11-07T04:39:39.361Z,77.94
2018-11-07T04:42:06.550Z,77.79
2018-11-07T04:44:33.927Z,77.34
2018-11-07T04:47:01.445Z,78.19
2018-11-07T04:49:28.590Z,78.36
2018-11-07T04:51:55.767Z,78.00
2018-11-07T04:54:22.949Z,78.30
2018-11-07T04:56:50.150Z,78.81
2018-11-07T04:59:17.366Z,78.78
2018-11-07T05:01:44.528Z,78.66
2018-11-07T05:04:11.669Z,78.58
2018-11-07T05:06:38.877Z,78.37
2018-11-07T05:09:07.226Z,78.33
2018-11-07T05:11:34.793Z,78.35
2018-11-07T05:14:02.216Z,78.35
2018-11-07T05:16:29.822Z,78.51
2018-11-07T05:18:57.110Z,78.33
2018-11-07T05:21:24.257Z,77.86
2018-11-07T05:23:51.419Z,78.24
2018-11-07T05:26:18.624Z,78.01
2018-11-07T05:28:45.707Z,78.34
2018-11-07T05:31:12.883Z,78.27
2018-11-07T05:33:40.006Z,78.29
2018-11-07T05:36:07.482Z,78.05
2018-11-07T05:38:34.801Z,77.99
2018-11-07T05:41:02.059Z,78.00
2018-11-07T05:43:29.137Z,77.82
2018-11-07T05:45:56.335Z,77.85
2018-11-07T05:48:23.551Z,77.77
2018-11-07T05:50:50.793Z,77.58
2018-11-07T05:53:18.075Z,77.41
2018-11-07T05:55:45.427Z,77.56
2018-11-07T05:58:12.649Z,78.09
2018-11-07T06:00:40.075Z,78.45
2018-11-07T06:03:07.432Z,79.09
2018-11-07T06:05:34.775Z,78.75
2018-11-07T06:08:01.961Z,79.04
2018-11-07T06:10:29.185Z,78.66
2018-11-07T06:12:56.381Z,78.94
2018-11-07T06:15:24.889Z,78.45
2018-11-07T06:17:52.274Z,78.10
2018-11-07T06:20:19.446Z,78.25
2018-11-07T06:22:46.766Z,78.37
2018-11-07T06:25:13.957Z,78.37
2018-11-07T06:27:41.269Z,78.19
2018-11-07T06:30:10.439Z,78.02
2018-11-07T06:32:37.904Z,77.86
2018-11-07T06:35:06.530Z,78.16
2018-11-07T06:37:33.907Z,78.24
2018-11-07T06:40:01.155Z,78.52
2018-11-07T06:42:28.389Z,78.35
2018-11-07T06:44:56.658Z,78.14
2018-11-07T06:47:24.486Z,77.88
2018-11-07T06:49:51.815Z,77.76
2018-11-07T06:52:19.015Z,77.48
2018-11-07T06:54:46.352Z,77.72
2018-11-07T06:57:13.640Z,77.27
2018-11-07T06:59:40.812Z,77.65
2018-11-07T07:02:08.025Z,77.35
2018-11-07T07:04:35.155Z,77.78
2018-11-07T07:07:02.648Z,77.65
2018-11-07T07:09:29.866Z,77.94
2018-11-07T07:11:57.139Z,77.72
2018-11-07T07:14:24.489Z,77.46
2018-11-07T07:16:51.831Z,77.55
2018-11-07T07:19:19.135Z,77.88
2018-11-07T07:21:46.693Z,77.96
2018-11-07T07:24:14.047Z,77.72
2018-11-07T07:26:41.334Z,77.83
2018-11-07T07:29:08.664Z,77.70
2018-11-07T07:31:36.178Z,77.30
2018-11-07T07:34:03.370Z,78.10
2018-11-07T07:36:30.727Z,78.19
2018-11-07T07:38:57.953Z,77.83
2018-11-07T07:41:25.239Z,77.65
2018-11-07T07:43:52.638Z,77.67
2018-11-07T07:46:19.871Z,77.69
2018-11-07T07:48:47.551Z,77.88
2018-11-07T07:51:14.751Z,77.79
2018-11-07T07:53:42.007Z,77.69
2018-11-07T07:56:09.317Z,77.80
2018-11-07T07:58:36.538Z,77.79
2018-11-07T08:01:04.911Z,77.28
2018-11-07T08:03:32.350Z,77.02
2018-11-07T08:05:59.598Z,76.67
2018-11-07T08:08:26.741Z,76.55
2018-11-07T08:10:53.990Z,76.41
2018-11-07T08:13:21.256Z,76.42
2018-11-07T08:15:48.459Z,76.40
2018-11-07T08:18:15.807Z,76.30
2018-11-07T08:20:43.012Z,76.40
2018-11-07T08:23:10.265Z,76.41
2018-11-07T08:25:37.485Z,75.95
2018-11-07T08:28:05.067Z,75.78
2018-11-07T08:30:32.291Z,75.47
2018-11-07T08:32:59.469Z,75.64
2018-11-07T08:35:26.947Z,75.01
2018-11-07T08:37:54.239Z,75.42
2018-11-07T08:40:22.771Z,75.26
2018-11-07T08:42:50.329Z,74.83
2018-11-07T08:45:18.440Z,74.52
2018-11-07T08:47:46.569Z,74.44
2018-11-07T08:50:15.583Z,74.06
2018-11-07T08:52:43.860Z,74.35
2018-11-07T08:55:12.784Z,74.05
2018-11-07T08:57:39.990Z,73.86
2018-11-07T09:00:10.052Z,73.66
2018-11-07T09:02:37.406Z,73.11
2018-11-07T09:05:04.654Z,73.21
2018-11-07T09:07:32.302Z,72.90
2018-11-07T09:09:59.525Z,72.61
2018-11-07T09:12:26.907Z,72.29
2018-11-07T09:14:54.631Z,72.52
2018-11-07T09:17:21.889Z,71.62
2018-11-07T09:19:49.303Z,71.51
2018-11-07T09:22:16.500Z,71.91
2018-11-07T09:24:43.736Z,71.35
2018-11-07T09:27:10.961Z,71.02
2018-11-07T09:29:38.206Z,71.11
2018-11-07T09:32:05.823Z,70.16
2018-11-07T09:34:33.131Z,70.21
2018-11-07T09:37:01.039Z,69.98
2018-11-07T09:39:28.246Z,69.18
2018-11-07T09:41:55.453Z,69.42
2018-11-07T09:44:22.796Z,68.53
2018-11-07T09:46:50.052Z,68.40
2018-11-07T09:49:17.244Z,67.41
2018-11-07T09:51:44.372Z,67.89
2018-11-07T09:54:12.012Z,65.75
2018-11-07T09:56:39.203Z,66.24
2018-11-07T09:59:06.539Z,66.03
2018-11-07T10:01:33.782Z,65.36
2018-11-07T10:04:00.957Z,63.84
2018-11-07T10:06:28.180Z,62.64
2018-11-07T10:08:55.492Z,62.16
2018-11-07T10:11:22.812Z,61.63
2018-11-07T10:13:50.271Z,62.61
2018-11-07T10:16:17.526Z,62.25
2018-11-07T10:18:44.797Z,62.02
2018-11-07T10:21:12.001Z,61.37
2018-11-07T10:23:39.392Z,61.29
2018-11-07T10:26:06.874Z,59.84
2018-11-07T10:28:34.726Z,59.64
2018-11-07T10:31:01.814Z,58.39
2018-11-07T10:33:28.955Z,58.04
2018-11-07T10:35:56.130Z,58.71
2018-11-07T10:38:23.336Z,58.41
2018-11-07T10:40:50.789Z,58.12
2018-11-07T10:43:18.210Z,57.66
2018-11-07T10:45:45.432Z,56.37
2018-11-07T10:48:12.794Z,55.68
2018-11-07T10:50:39.987Z,55.30
2018-11-07T10:53:07.548Z,53.87
2018-11-07T10:55:34.981Z,52.81
2018-11-07T10:58:02.192Z,51.85
2018-11-07T11:00:35.369Z,52.03
2018-11-07T11:03:09.200Z,51.25
2018-11-07T11:05:37.539Z,51.67
2018-11-07T11:08:05.698Z,51.28
2018-11-07T11:10:33.015Z,51.33
2018-11-07T11:13:00.200Z,50.74
2018-11-07T11:15:27.444Z,51.14
2018-11-07T11:17:54.920Z,50.42
2018-11-07T11:20:22.250Z,51.67
2018-11-07T11:22:49.778Z,50.36
2018-11-07T11:25:17.144Z,50.34
2018-11-07T11:27:44.395Z,50.57
2018-11-07T11:30:11.609Z,49.30
2018-11-07T11:32:40.674Z,49.67
2018-11-07T11:35:10.402Z,49.34
2018-11-07T11:37:37.681Z,47.96
2018-11-07T11:40:06.831Z,48.08
2018-11-07T11:42:34.038Z,47.02
2018-11-07T11:45:01.184Z,48.01
2018-11-07T11:47:28.895Z,47.12
2018-11-07T11:49:56.149Z,47.16
2018-11-07T11:52:25.707Z,47.15
2018-11-07T11:54:52.921Z,47.40
2018-11-07T11:57:20.465Z,47.37
2018-11-07T11:59:47.974Z,47.35
2018-11-07T12:02:15.226Z,46.62
2018-11-07T12:04:42.455Z,46.24
2018-11-07T12:07:09.707Z,45.89
2018-11-07T12:09:37.029Z,46.62
2018-11-07T12:12:04.548Z,46.69
2018-11-07T12:14:31.672Z,47.21
2018-11-07T12:16:59.107Z,47.17
2018-11-07T12:19:26.449Z,45.46
2018-11-07T12:21:54.431Z,46.62
2018-11-07T12:24:21.776Z,46.24
2018-11-07T12:26:49.110Z,47.03
2018-11-07T12:29:16.387Z,45.69
2018-11-07T12:31:43.637Z,46.13
2018-11-07T12:34:10.875Z,46.21
2018-11-07T12:36:38.189Z,45.23
2018-11-07T12:39:07.095Z,45.09
2018-11-07T12:41:34.505Z,45.48
2018-11-07T12:44:01.744Z,45.67
2018-11-07T12:46:29.119Z,45.91
2018-11-07T12:48:56.407Z,45.96
2018-11-07T12:51:23.656Z,45.48
2018-11-07T12:53:50.932Z,46.10
2018-11-07T12:56:18.226Z,46.38
2018-11-07T12:58:45.468Z,47.04
2018-11-07T13:01:12.784Z,46.72
2018-11-07T13:03:40.347Z,46.85
2018-11-07T13:06:07.727Z,46.07
2018-11-07T13:08:35.150Z,47.15
2018-11-07T13:11:02.340Z,47.33
2018-11-07T13:13:29.731Z,46.28
2018-11-07T13:15:57.214Z,46.22
2018-11-07T13:18:24.518Z,46.30
2018-11-07T13:20:52.055Z,46.48
2018-11-07T13:23:19.376Z,46.82
2018-11-07T13:25:46.681Z,46.99
2018-11-07T13:28:14.013Z,46.65
2018-11-07T13:30:41.351Z,47.65
2018-11-07T13:33:09.312Z,48.56
2018-11-07T13:35:36.669Z,47.81
2018-11-07T13:38:05.271Z,48.21
2018-11-07T13:40:33.417Z,48.01
2018-11-07T13:43:00.887Z,47.80
2018-11-07T13:45:28.255Z,48.04
2018-11-07T13:47:55.518Z,48.19
2018-11-07T13:50:22.693Z,47.93
2018-11-07T13:52:50.129Z,48.51
2018-11-07T13:55:17.407Z,48.98
2018-11-07T13:57:45.595Z,48.56
2018-11-07T14:00:16.560Z,48.39
2018-11-07T14:02:44.361Z,49.01
2018-11-07T14:05:12.072Z,48.73
2018-11-07T14:07:39.302Z,49.23
2018-11-07T14:10:09.722Z,49.56
2018-11-07T14:12:37.005Z,49.05
2018-11-07T14:15:06.542Z,48.69
2018-11-07T14:17:34.243Z,49.30
2018-11-07T14:20:01.737Z,49.57
2018-11-07T14:22:29.180Z,49.01
2018-11-07T14:24:56.591Z,49.26
2018-11-07T14:27:24.159Z,50.68
2018-11-07T14:29:51.533Z,50.11
2018-11-07T14:32:18.739Z,50.55
2018-11-07T14:34:46.019Z,50.27
2018-11-07T14:37:13.627Z,50.26
2018-11-07T14:39:40.922Z,50.24
2018-11-07T14:42:08.972Z,50.59
2018-11-07T14:44:36.301Z,51.00
2018-11-07T14:47:03.858Z,51.30
2018-11-07T14:49:31.388Z,51.69
2018-11-07T14:51:58.929Z,52.26
2018-11-07T14:54:26.760Z,52.25
2018-11-07T14:56:54.212Z,51.99
2018-11-07T14:59:21.437Z,51.76
2018-11-07T15:01:48.828Z,52.12
2018-11-07T15:04:17.171Z,51.81
2018-11-07T15:06:44.667Z,51.74
2018-11-07T15:09:12.331Z,52.21
2018-11-07T15:11:40.238Z,52.40
2018-11-07T15:14:07.898Z,52.32
2018-11-07T15:16:35.355Z,52.14
2018-11-07T15:19:02.759Z,52.59
2018-11-07T15:21:30.047Z,52.31
2018-11-07T15:23:57.421Z,52.56
2018-11-07T15:26:24.667Z,52.52
2018-11-07T15:28:52.071Z,52.98
2018-11-07T15:31:19.521Z,52.65
2018-11-07T15:33:46.898Z,51.80
2018-11-07T15:36:14.527Z,52.66
2018-11-07T15:38:41.758Z,53.43
2018-11-07T15:41:09.105Z,53.15
2018-11-07T15:43:36.504Z,52.76
2018-11-07T15:46:03.615Z,52.91
2018-11-07T15:48:30.851Z,53.20
2018-11-07T15:51:03.770Z,53.35
2018-11-07T15:53:30.925Z,54.13
2018-11-07T15:55:58.229Z,53.97
2018-11-07T15:58:25.499Z,55.25
2018-11-07T16:00:55.571Z,54.87
2018-11-07T16:03:30.356Z,56.37
2018-11-07T16:05:59.469Z,56.11
2018-11-07T16:08:27.263Z,56.34
2018-11-07T16:10:54.771Z,55.95
2018-11-07T16:13:22.285Z,56.59
2018-11-07T16:15:49.773Z,56.46
2018-11-07T16:18:17.138Z,56.76
2018-11-07T16:20:44.799Z,56.11
2018-11-07T16:23:13.017Z,55.97
2018-11-07T16:25:40.345Z,56.03
2018-11-07T16:28:07.743Z,56.69
2018-11-07T16:30:35.174Z,56.01
2018-11-07T16:33:02.561Z,56.48
2018-11-07T16:35:30.312Z,56.37
2018-11-07T16:37:57.976Z,56.38
2018-11-07T16:40:25.304Z,58.03
2018-11-07T16:42:53.141Z,57.46
2018-11-07T16:45:20.490Z,58.60
2018-11-07T16:47:48.512Z,59.11
2018-11-07T16:50:17.218Z,59.51
2018-11-07T16:52:44.751Z,60.86
2018-11-07T16:55:12.373Z,60.82
2018-11-07T16:57:41.532Z,61.40
2018-11-07T17:00:13.798Z,61.42
2018-11-07T17:02:43.381Z,61.59
2018-11-07T17:05:11.671Z,62.55
2018-11-07T17:07:39.320Z,62.36
2018-11-07T17:10:10.404Z,63.51
2018-11-07T17:12:38.449Z,64.16
2018-11-07T17:15:07.267Z,64.63
2018-11-07T17:17:36.659Z,64.52
2018-11-07T17:20:05.388Z,64.34
2018-11-07T17:22:35.387Z,65.10
2018-11-07T17:25:07.860Z,66.89
2018-11-07T17:27:37.856Z,68.05
2018-11-07T17:30:07.016Z,68.03
2018-11-07T17:32:36.868Z,69.10
2018-11-07T17:35:05.346Z,69.91
2018-11-07T17:37:33.050Z,70.65
2018-11-07T17:40:00.534Z,70.78
2018-11-07T17:42:28.824Z,70.85
2018-11-07T17:44:56.174Z,72.30
2018-11-07T17:47:23.709Z,72.96
2018-11-07T17:49:51.121Z,73.10
2018-11-07T17:52:18.401Z,73.45
2018-11-07T17:54:45.708Z,73.96
2018-11-07T17:57:13.084Z,73.56
2018-11-07T17:59:40.464Z,74.59
2018-11-07T18:02:07.921Z,74.90
2018-11-07T18:04:35.297Z,75.41
2018-11-07T18:07:02.547Z,75.51
2018-11-07T18:09:29.891Z,75.32
2018-11-07T18:11:57.196Z,75.04
2018-11-07T18:14:25.047Z,75.45
2018-11-07T18:16:52.226Z,75.67
2018-11-07T18:19:19.481Z,75.31
2018-11-07T18:21:46.790Z,75.42
2018-11-07T18:24:14.165Z,75.63
2018-11-07T18:26:41.645Z,75.28
2018-11-07T18:29:09.066Z,75.67
2018-11-07T18:31:36.275Z,75.94
2018-11-07T18:34:03.717Z,76.43
2018-11-07T18:36:31.003Z,76.71
2018-11-07T18:38:59.203Z,76.90
2018-11-07T18:41:26.604Z,77.38
2018-11-07T18:43:53.791Z,78.17
2018-11-07T18:46:21.009Z,78.19
2018-11-07T18:48:48.395Z,78.35
2018-11-07T18:51:15.885Z,78.70
2018-11-07T18:53:43.312Z,77.83
2018-11-07T18:56:10.570Z,77.93
2018-11-07T18:58:38.344Z,78.03
2018-11-07T19:01:05.918Z,78.14
2018-11-07T19:03:33.214Z,77.92
2018-11-07T19:06:00.592Z,77.46
2018-11-07T19:08:28.110Z,78.40
2018-11-07T19:10:55.379Z,78.30
2018-11-07T19:13:23.765Z,79.11
2018-11-07T19:15:56.187Z,78.96
2018-11-07T19:18:23.786Z,78.64
2018-11-07T19:20:50.992Z,78.82
2018-11-07T19:23:18.994Z,79.17
2018-11-07T19:25:46.763Z,78.26
2018-11-07T19:28:14.310Z,79.42
2018-11-07T19:30:42.034Z,78.98
2018-11-07T19:33:11.137Z,78.93
2018-11-07T19:35:39.182Z,79.58
2018-11-07T19:38:06.443Z,79.91
2018-11-07T19:40:34.514Z,79.45
2018-11-07T19:43:02.134Z,79.08
2018-11-07T19:45:30.094Z,79.21
2018-11-07T19:47:57.376Z,78.58
2018-11-07T19:50:24.751Z,78.89
2018-11-07T19:52:52.430Z,78.59
2018-11-07T19:55:21.337Z,78.65
2018-11-07T19:57:50.297Z,79.05
2018-11-07T20:00:19.161Z,78.88
2018-11-07T20:02:47.015Z,78.63
2018-11-07T20:05:14.414Z,79.02
2018-11-07T20:07:41.868Z,79.08
2018-11-07T20:10:13.398Z,78.52
2018-11-07T20:12:40.979Z,78.11
2018-11-07T20:15:10.000Z,78.07
2018-11-07T20:17:37.331Z,78.06
2018-11-07T20:20:04.822Z,79.18
2018-11-07T20:22:32.210Z,79.43
2018-11-07T20:24:59.570Z,79.16
2018-11-07T20:27:27.020Z,79.08
2018-11-07T20:29:54.467Z,79.09
2018-11-07T20:32:21.740Z,79.69
2018-11-07T20:34:49.098Z,78.98
2018-11-07T20:37:16.410Z,78.99
2018-11-07T20:39:43.726Z,79.30
2018-11-07T20:42:11.060Z,79.10
2018-11-07T20:44:39.832Z,79.43
2018-11-07T20:47:07.144Z,79.20
2018-11-07T20:49:34.470Z,79.52
2018-11-07T20:52:01.859Z,79.41
2018-11-07T20:54:29.368Z,79.41
2018-11-07T20:56:56.744Z,79.71
2018-11-07T20:59:24.063Z,79.68
2018-11-07T21:01:51.500Z,79.39
2018-11-07T21:04:18.715Z,79.22
2018-11-07T21:06:46.023Z,79.32
2018-11-07T21:09:13.300Z,78.93
2018-11-07T21:11:41.589Z,79.35
2018-11-07T21:14:08.946Z,79.46
2018-11-07T21:16:36.259Z,79.00
2018-11-07T21:19:03.960Z,79.26
2018-11-07T21:21:31.715Z,78.98
2018-11-07T21:23:58.937Z,79.27
2018-11-07T21:26:26.229Z,79.60
2018-11-07T21:28:53.459Z,79.38
2018-11-07T21:31:21.040Z,79.15
2018-11-07T21:33:48.343Z,79.33
2018-11-07T21:36:16.361Z,79.11
2018-11-07T21:38:43.728Z,78.52
2018-11-07T21:41:11.048Z,79.05
2018-11-07T21:43:38.777Z,78.39
2018-11-07T21:46:07.133Z,78.29
2018-11-07T21:48:34.436Z,79.03
2018-11-07T21:51:01.901Z,78.80
2018-11-07T21:53:29.076Z,78.40
2018-11-07T21:55:56.329Z,78.79
2018-11-07T21:58:23.668Z,78.15
2018-11-07T22:00:51.060Z,78.48
2018-11-07T22:03:18.259Z,78.95
2018-11-07T22:05:45.695Z,78.96
2018-11-07T22:08:12.965Z,78.83
2018-11-07T22:10:40.229Z,78.83
2018-11-07T22:13:07.629Z,78.41
2018-11-07T22:15:35.271Z,79.01
2018-11-07T22:18:02.621Z,79.35
2018-11-07T22:20:30.356Z,80.00
2018-11-07T22:22:58.045Z,79.83
2018-11-07T22:25:25.526Z,78.80
2018-11-07T22:27:53.026Z,79.84
2018-11-07T22:30:21.475Z,78.62
2018-11-07T22:32:48.927Z,79.51
2018-11-07T22:35:17.267Z,79.31
2018-11-07T22:37:45.556Z,79.15
2018-11-07T22:40:14.338Z,78.74
2018-11-07T22:42:41.895Z,78.62
2018-11-07T22:45:10.029Z,79.15
2018-11-07T22:47:37.505Z,79.16
2018-11-07T22:50:05.569Z,79.35
2018-11-07T22:52:32.936Z,78.71
2018-11-07T22:55:00.328Z,79.41
2018-11-07T22:57:27.580Z,79.30
2018-11-07T22:59:54.822Z,79.50
2018-11-07T23:02:22.165Z,79.07
2018-11-07T23:04:49.462Z,79.51
2018-11-07T23:07:16.707Z,79.80
2018-11-07T23:09:43.983Z,78.68
2018-11-07T23:12:11.341Z,78.93
2018-11-07T23:14:38.691Z,78.66
2018-11-07T23:17:05.982Z,78.63
2018-11-07T23:19:33.424Z,78.58
2018-11-07T23:22:00.571Z,79.18
2018-11-07T23:24:28.303Z,79.21
2018-11-07T23:26:55.526Z,79.16
2018-11-07T23:29:22.767Z,79.45
2018-11-07T23:31:50.142Z,78.38
2018-11-07T23:34:17.696Z,78.44
2018-11-07T23:36:44.934Z,79.15
2018-11-07T23:39:12.276Z,77.72
2018-11-07T23:41:39.450Z,78.30
2018-11-07T23:44:06.678Z,78.34
2018-11-07T23:46:33.969Z,77.87
2018-11-07T23:49:01.187Z,78.12
2018-11-07T23:51:28.560Z,79.20
2018-11-07T23:53:55.798Z,79.52
2018-11-07T23:56:23.152Z,79.15
2018-11-07T23:58:50.389Z,79.38
